createdAt,value
2019-05-22T00:00:20.221Z,14.97
2019-05-22T00:01:20.233Z,14.57
2019-05-22T00:02:20.232Z,14.44
2019-05-22T00:03:20.241Z,14.30
2019-05-22T00:04:20.276Z,13.92
2019-05-22T00:05:20.235Z,13.87
2019-05-22T00:06:20.216Z,14.06
2019-05-22T00:07:20.269Z,14.22
2019-05-22T00:08:20.208Z,14.70
2019-05-22T00:09:20.254Z,14.88
2019-05-22T00:10:20.228Z,14.86
2019-05-22T00:11:20.251Z,14.97
2019-05-22T00:12:20.224Z,15.00
2019-05-22T00:13:20.207Z,15.10
2019-05-22T00:14:20.220Z,15.24
2019-05-22T00:15:20.255Z,15.12
2019-05-22T00:16:20.244Z,14.98
2019-05-22T00:17:20.242Z,15.09
2019-05-22T00:18:20.228Z,15.02
2019-05-22T00:19:20.224Z,15.04
2019-05-22T00:20:20.279Z,15.17
2019-05-22T00:21:20.262Z,15.01
2019-05-22T00:22:20.233Z,15.16
2019-05-22T00:23:20.258Z,15.19
2019-05-22T00:24:20.235Z,15.14
2019-05-22T00:25:20.271Z,15.21
2019-05-22T00:26:20.225Z,15.39
2019-05-22T00:27:20.250Z,15.42
2019-05-22T00:28:20.248Z,15.28
2019-05-22T00:29:20.264Z,15.24
2019-05-22T00:30:20.231Z,15.32
2019-05-22T00:31:20.235Z,15.38
2019-05-22T00:32:20.268Z,15.33
2019-05-22T00:33:20.236Z,15.35
2019-05-22T00:34:20.264Z,15.36
2019-05-22T00:35:20.239Z,15.16
2019-05-22T00:36:20.227Z,15.13
2019-05-22T00:37:20.241Z,15.11
2019-05-22T00:38:20.275Z,15.24
2019-05-22T00:39:20.233Z,14.99
2019-05-22T00:40:20.298Z,14.64
2019-05-22T00:41:20.279Z,14.23
2019-05-22T00:42:20.243Z,14.69
2019-05-22T00:43:20.234Z,14.89
2019-05-22T00:44:20.248Z,15.09
2019-05-22T00:45:20.253Z,15.07
2019-05-22T00:46:20.272Z,14.94
2019-05-22T00:47:20.283Z,14.94
2019-05-22T00:48:20.254Z,15.03
2019-05-22T00:49:20.265Z,15.08
2019-05-22T00:50:20.236Z,14.97
2019-05-22T00:51:20.296Z,15.09
2019-05-22T00:52:20.270Z,15.03
2019-05-22T00:53:20.305Z,15.09
2019-05-22T00:54:20.251Z,15.09
2019-05-22T00:55:20.270Z,15.06
2019-05-22T00:56:20.291Z,14.95
2019-05-22T00:57:20.284Z,14.84
2019-05-22T00:58:20.296Z,14.94
2019-05-22T00:59:20.275Z,15.06
2019-05-22T01:00:20.277Z,15.07
2019-05-22T01:01:20.299Z,15.25
2019-05-22T01:02:20.261Z,15.39
2019-05-22T01:03:20.291Z,15.33
2019-05-22T01:04:20.298Z,15.20
2019-05-22T01:05:20.279Z,15.07
2019-05-22T01:06:20.261Z,15.06
2019-05-22T01:07:20.257Z,14.94
2019-05-22T01:08:20.260Z,14.80
2019-05-22T01:09:20.311Z,14.86
2019-05-22T01:10:20.284Z,14.88
2019-05-22T01:11:20.301Z,14.99
2019-05-22T01:12:20.270Z,14.97
2019-05-22T01:13:20.293Z,15.10
2019-05-22T01:14:20.277Z,15.16
2019-05-22T01:15:20.305Z,15.00
2019-05-22T01:16:20.294Z,14.61
2019-05-22T01:17:20.331Z,14.56
2019-05-22T01:18:20.316Z,14.91
2019-05-22T01:19:20.275Z,15.02
2019-05-22T01:20:20.294Z,15.16
2019-05-22T01:21:20.308Z,15.25
2019-05-22T01:22:20.302Z,15.16
2019-05-22T01:23:20.304Z,15.20
2019-05-22T01:24:20.320Z,15.05
2019-05-22T01:25:20.316Z,15.02
2019-05-22T01:26:20.323Z,15.15
2019-05-22T01:27:20.265Z,15.18
2019-05-22T01:28:20.309Z,15.10
2019-05-22T01:29:20.309Z,15.02
2019-05-22T01:30:20.303Z,14.83
2019-05-22T01:31:20.315Z,14.74
2019-05-22T01:32:20.312Z,14.31
2019-05-22T01:33:20.303Z,14.01
2019-05-22T01:34:20.296Z,13.93
2019-05-22T01:35:20.287Z,14.45
2019-05-22T01:36:20.311Z,14.13
2019-05-22T01:37:20.287Z,14.46
2019-05-22T01:38:20.336Z,14.80
2019-05-22T01:39:20.333Z,14.98
2019-05-22T01:40:20.339Z,15.07
2019-05-22T01:41:20.323Z,15.26
2019-05-22T01:42:20.326Z,15.09
2019-05-22T01:43:20.310Z,15.02
2019-05-22T01:44:20.330Z,14.97
2019-05-22T01:45:20.305Z,14.94
2019-05-22T01:46:20.316Z,15.05
2019-05-22T01:47:20.373Z,15.00
2019-05-22T01:48:20.296Z,15.12
2019-05-22T01:49:20.301Z,15.18
2019-05-22T01:50:20.337Z,15.24
2019-05-22T01:51:20.308Z,15.17
2019-05-22T01:52:20.322Z,14.99
2019-05-22T01:53:20.326Z,15.09
2019-05-22T01:54:20.328Z,14.92
2019-05-22T01:55:20.354Z,14.82
2019-05-22T01:56:20.311Z,14.99
2019-05-22T01:57:20.348Z,14.89
2019-05-22T01:58:20.327Z,14.92
2019-05-22T01:59:20.347Z,14.98
2019-05-22T02:00:20.319Z,14.89
2019-05-22T02:01:20.307Z,15.21
2019-05-22T02:02:20.344Z,15.18
2019-05-22T02:03:20.322Z,15.09
2019-05-22T02:04:20.375Z,14.71
2019-05-22T02:05:20.338Z,14.62
2019-05-22T02:06:20.311Z,14.59
2019-05-22T02:07:20.307Z,15.00
2019-05-22T02:08:20.341Z,15.03
2019-05-22T02:09:20.329Z,14.97
2019-05-22T02:10:20.365Z,15.28
2019-05-22T02:11:20.357Z,14.64
2019-05-22T02:12:20.321Z,14.92
2019-05-22T02:13:20.319Z,14.23
2019-05-22T02:14:20.342Z,14.65
2019-05-22T02:15:20.323Z,14.70
2019-05-22T02:16:20.362Z,14.71
2019-05-22T02:17:20.349Z,14.70
2019-05-22T02:18:20.347Z,14.77
2019-05-22T02:19:20.383Z,14.42
2019-05-22T02:20:20.307Z,14.36
2019-05-22T02:21:20.408Z,14.23
2019-05-22T02:22:20.347Z,14.39
2019-05-22T02:23:20.380Z,14.50
2019-05-22T02:24:20.337Z,14.18
2019-05-22T02:25:20.313Z,14.50
2019-05-22T02:26:20.380Z,14.15
2019-05-22T02:27:20.337Z,14.34
2019-05-22T02:28:20.339Z,14.35
2019-05-22T02:29:20.361Z,14.58
2019-05-22T02:30:20.370Z,14.57
2019-05-22T02:31:20.414Z,14.70
2019-05-22T02:32:20.369Z,14.62
2019-05-22T02:33:20.338Z,14.20
2019-05-22T02:34:20.376Z,14.02
2019-05-22T02:35:20.365Z,14.14
2019-05-22T02:36:20.457Z,14.28
2019-05-22T02:37:20.348Z,13.98
2019-05-22T02:38:20.348Z,14.07
2019-05-22T02:39:20.371Z,14.16
2019-05-22T02:40:20.350Z,14.34
2019-05-22T02:41:20.366Z,14.24
2019-05-22T02:42:20.439Z,14.32
2019-05-22T02:43:20.384Z,14.22
2019-05-22T02:44:20.354Z,14.43
2019-05-22T02:45:20.368Z,14.40
2019-05-22T02:46:20.355Z,14.63
2019-05-22T02:47:21.470Z,14.56
2019-05-22T02:48:20.326Z,14.48
2019-05-22T02:49:20.339Z,14.50
2019-05-22T02:50:20.378Z,14.54
2019-05-22T02:51:20.366Z,14.33
2019-05-22T02:52:20.421Z,14.43
2019-05-22T02:53:20.401Z,14.50
2019-05-22T02:54:20.373Z,14.50
2019-05-22T02:55:20.358Z,14.60
2019-05-22T02:56:20.370Z,14.47
2019-05-22T02:57:20.371Z,14.44
2019-05-22T02:58:20.405Z,14.60
2019-05-22T02:59:20.488Z,14.57
2019-05-22T03:00:20.452Z,14.67
2019-05-22T03:01:20.485Z,14.64
2019-05-22T03:02:20.399Z,14.65
2019-05-22T03:03:20.473Z,14.64
2019-05-22T03:04:20.474Z,14.70
2019-05-22T03:05:20.508Z,14.69
2019-05-22T03:06:20.476Z,14.89
2019-05-22T03:07:20.469Z,14.93
2019-05-22T03:08:20.524Z,15.13
2019-05-22T03:09:20.567Z,14.97
2019-05-22T03:10:20.539Z,15.04
2019-05-22T03:11:20.566Z,14.98
2019-05-22T03:12:20.520Z,14.98
2019-05-22T03:13:20.571Z,14.83
2019-05-22T03:14:20.625Z,14.93
2019-05-22T03:15:20.619Z,15.02
2019-05-22T03:16:20.605Z,14.89
2019-05-22T03:17:20.626Z,15.04
2019-05-22T03:18:20.653Z,15.06
2019-05-22T03:19:20.690Z,15.03
2019-05-22T03:20:20.639Z,15.16
2019-05-22T03:21:20.670Z,14.89
2019-05-22T03:22:20.780Z,15.08
2019-05-22T03:23:20.730Z,15.05
2019-05-22T03:24:20.731Z,14.86
2019-05-22T03:25:20.696Z,15.14
2019-05-22T03:26:20.699Z,15.11
2019-05-22T03:27:20.725Z,15.18
2019-05-22T03:28:20.710Z,15.12
2019-05-22T03:29:20.829Z,15.26
2019-05-22T03:30:20.803Z,15.02
2019-05-22T03:31:20.929Z,15.05
2019-05-22T03:32:20.822Z,14.89
2019-05-22T03:33:20.788Z,15.19
2019-05-22T03:34:20.865Z,14.76
2019-05-22T03:35:20.875Z,15.11
2019-05-22T03:36:20.938Z,15.20
2019-05-22T03:37:20.874Z,15.23
2019-05-22T03:38:20.877Z,14.89
2019-05-22T03:39:20.904Z,15.08
2019-05-22T03:40:20.930Z,15.15
2019-05-22T03:41:20.960Z,15.09
2019-05-22T03:42:20.900Z,15.13
2019-05-22T03:43:20.906Z,14.93
2019-05-22T03:44:20.901Z,15.05
2019-05-22T03:45:20.919Z,15.24
2019-05-22T03:46:21.016Z,15.22
2019-05-22T03:47:20.971Z,15.02
2019-05-22T03:48:20.993Z,15.07
2019-05-22T03:49:29.807Z,15.22
2019-05-22T03:50:20.987Z,15.23
2019-05-22T03:51:20.997Z,15.15
2019-05-22T03:52:20.983Z,15.10
2019-05-22T03:53:21.038Z,15.02
2019-05-22T03:54:21.014Z,14.97
2019-05-22T03:55:21.028Z,15.10
2019-05-22T03:56:21.023Z,14.92
2019-05-22T03:57:21.068Z,15.00
2019-05-22T03:58:21.025Z,15.08
2019-05-22T03:59:21.065Z,15.04
2019-05-22T04:00:21.030Z,15.17
2019-05-22T04:01:21.055Z,15.22
2019-05-22T04:02:21.036Z,15.10
2019-05-22T04:03:21.042Z,15.00
2019-05-22T04:04:21.060Z,15.01
2019-05-22T04:05:21.031Z,15.00
2019-05-22T04:06:21.044Z,15.01
2019-05-22T04:07:21.078Z,14.84
2019-05-22T04:08:21.043Z,15.02
2019-05-22T04:09:21.057Z,15.01
2019-05-22T04:10:21.102Z,15.07
2019-05-22T04:11:21.058Z,14.97
2019-05-22T04:12:21.067Z,14.74
2019-05-22T04:13:21.031Z,14.70
2019-05-22T04:14:21.074Z,15.00
2019-05-22T04:15:21.068Z,14.99
2019-05-22T04:16:21.060Z,14.92
2019-05-22T04:17:21.034Z,15.10
2019-05-22T04:18:23.004Z,15.11
2019-05-22T04:19:21.040Z,15.30
2019-05-22T04:20:21.083Z,15.51
2019-05-22T04:21:21.110Z,15.59
2019-05-22T04:22:21.102Z,15.17
2019-05-22T04:23:21.124Z,14.83
2019-05-22T04:24:21.088Z,14.77
2019-05-22T04:25:21.110Z,14.72
2019-05-22T04:26:21.156Z,14.72
2019-05-22T04:27:21.170Z,15.01
2019-05-22T04:28:21.165Z,15.07
2019-05-22T04:29:21.170Z,14.92
2019-05-22T04:30:21.178Z,15.19
2019-05-22T04:31:21.162Z,15.12
2019-05-22T04:32:21.209Z,14.93
2019-05-22T04:33:21.231Z,14.75
2019-05-22T04:34:21.246Z,14.36
2019-05-22T04:35:21.268Z,14.47
2019-05-22T04:36:21.244Z,14.70
2019-05-22T04:37:21.238Z,14.89
2019-05-22T04:38:21.282Z,15.06
2019-05-22T04:39:21.327Z,15.15
2019-05-22T04:40:21.300Z,15.16
2019-05-22T04:41:21.282Z,15.30
2019-05-22T04:42:21.314Z,15.39
2019-05-22T04:43:21.377Z,15.56
2019-05-22T04:44:21.357Z,15.73
2019-05-22T04:45:21.362Z,15.85
2019-05-22T04:46:21.417Z,15.92
2019-05-22T04:47:21.363Z,15.99
2019-05-22T04:48:21.398Z,16.03
2019-05-22T04:49:21.371Z,15.37
2019-05-22T04:50:21.426Z,14.80
2019-05-22T04:51:21.455Z,14.75
2019-05-22T04:52:21.478Z,14.68
2019-05-22T04:53:21.460Z,14.58
2019-05-22T04:54:21.491Z,14.88
2019-05-22T04:55:21.505Z,14.80
2019-05-22T04:56:21.491Z,14.88
2019-05-22T04:57:21.498Z,14.68
2019-05-22T04:58:21.532Z,14.88
2019-05-22T04:59:21.484Z,14.88
2019-05-22T05:00:21.531Z,15.22
2019-05-22T05:01:21.537Z,15.81
2019-05-22T05:02:21.522Z,16.03
2019-05-22T05:03:21.582Z,16.14
2019-05-22T05:04:21.591Z,16.33
2019-05-22T05:05:21.602Z,16.37
2019-05-22T05:06:21.612Z,16.46
2019-05-22T05:07:21.635Z,16.42
2019-05-22T05:08:21.637Z,16.37
2019-05-22T05:09:21.632Z,16.44
2019-05-22T05:10:21.669Z,16.66
2019-05-22T05:11:21.748Z,16.79
2019-05-22T05:12:21.671Z,16.80
2019-05-22T05:13:21.726Z,16.55
2019-05-22T05:14:21.707Z,16.62
2019-05-22T05:15:21.703Z,16.71
2019-05-22T05:16:21.730Z,16.54
2019-05-22T05:17:21.696Z,16.25
2019-05-22T05:18:21.732Z,15.59
2019-05-22T05:19:21.741Z,16.22
2019-05-22T05:20:22.789Z,16.51
2019-05-22T05:21:21.784Z,16.68
2019-05-22T05:22:21.821Z,16.38
2019-05-22T05:23:21.787Z,15.84
2019-05-22T05:24:21.803Z,15.20
2019-05-22T05:25:21.827Z,15.74
2019-05-22T05:26:21.823Z,15.57
2019-05-22T05:27:21.858Z,15.89
2019-05-22T05:28:21.900Z,16.26
2019-05-22T05:29:21.857Z,16.47
2019-05-22T05:30:21.896Z,16.35
2019-05-22T05:31:21.883Z,16.57
2019-05-22T05:32:21.878Z,16.78
2019-05-22T05:33:21.959Z,16.80
2019-05-22T05:34:21.958Z,16.67
2019-05-22T05:35:21.917Z,16.70
2019-05-22T05:36:21.931Z,16.41
2019-05-22T05:37:21.973Z,16.43
2019-05-22T05:38:21.981Z,16.52
2019-05-22T05:39:22.031Z,16.80
2019-05-22T05:40:21.993Z,16.90
2019-05-22T05:41:22.054Z,17.10
2019-05-22T05:42:22.037Z,16.98
2019-05-22T05:43:22.023Z,16.32
2019-05-22T05:44:22.086Z,16.17
2019-05-22T05:45:22.105Z,16.43
2019-05-22T05:46:22.036Z,16.59
2019-05-22T05:47:22.066Z,16.71
2019-05-22T05:48:22.098Z,16.72
2019-05-22T05:49:22.079Z,16.65
2019-05-22T05:50:37.901Z,16.72
2019-05-22T05:51:22.122Z,16.91
2019-05-22T05:52:22.111Z,17.02
2019-05-22T05:53:22.135Z,17.08
2019-05-22T05:54:22.104Z,17.29
2019-05-22T05:55:22.102Z,17.40
2019-05-22T05:56:22.139Z,17.32
2019-05-22T05:57:22.142Z,17.43
2019-05-22T05:58:22.106Z,17.55
2019-05-22T05:59:22.135Z,17.59
2019-05-22T06:00:22.133Z,17.71
2019-05-22T06:01:22.133Z,17.80
2019-05-22T06:02:22.132Z,17.96
2019-05-22T06:03:22.153Z,17.76
2019-05-22T06:04:34.093Z,16.74
2019-05-22T06:05:22.131Z,16.20
2019-05-22T06:06:22.125Z,16.47
2019-05-22T06:07:22.113Z,16.88
2019-05-22T06:08:22.124Z,17.15
2019-05-22T06:09:22.142Z,17.40
2019-05-22T06:10:22.127Z,17.53
2019-05-22T06:11:22.164Z,17.60
2019-05-22T06:12:22.161Z,17.73
2019-05-22T06:13:22.175Z,17.41
2019-05-22T06:14:22.351Z,16.80
2019-05-22T06:15:22.153Z,16.73
2019-05-22T06:16:22.126Z,17.28
2019-05-22T06:17:22.107Z,17.45
2019-05-22T06:18:22.133Z,17.70
2019-05-22T06:19:22.146Z,17.88
2019-05-22T06:20:22.137Z,18.03
2019-05-22T06:21:22.161Z,18.02
2019-05-22T06:22:22.135Z,17.15
2019-05-22T06:23:22.160Z,17.28
2019-05-22T06:24:22.135Z,17.75
2019-05-22T06:25:22.117Z,17.88
2019-05-22T06:26:22.157Z,18.05
2019-05-22T06:27:22.171Z,18.35
2019-05-22T06:28:22.131Z,18.41
2019-05-22T06:29:22.115Z,18.20
2019-05-22T06:30:22.143Z,18.69
2019-05-22T06:31:22.171Z,18.98
2019-05-22T06:32:22.134Z,18.37
2019-05-22T06:33:22.156Z,18.19
2019-05-22T06:34:22.137Z,18.11
2019-05-22T06:35:22.152Z,18.35
2019-05-22T06:36:22.162Z,18.42
2019-05-22T06:37:22.140Z,18.98
2019-05-22T06:38:22.191Z,19.46
2019-05-22T06:39:22.169Z,19.77
2019-05-22T06:40:22.130Z,19.89
2019-05-22T06:41:22.157Z,20.27
2019-05-22T06:42:22.143Z,20.63
2019-05-22T06:43:22.129Z,20.99
2019-05-22T06:44:22.168Z,20.90
2019-05-22T06:45:22.159Z,21.31
2019-05-22T06:46:22.203Z,21.07
2019-05-22T06:47:22.225Z,21.28
2019-05-22T06:48:22.213Z,21.95
2019-05-22T06:49:22.144Z,22.20
2019-05-22T06:50:22.227Z,22.52
2019-05-22T06:51:22.174Z,22.10
2019-05-22T06:52:22.169Z,21.30
2019-05-22T06:53:22.201Z,21.35
2019-05-22T06:54:22.169Z,20.94
2019-05-22T06:55:22.164Z,21.57
2019-05-22T06:56:23.836Z,22.09
2019-05-22T06:57:22.203Z,22.49
2019-05-22T06:58:22.173Z,22.78
2019-05-22T06:59:22.153Z,23.11
2019-05-22T07:00:22.145Z,23.23
2019-05-22T07:01:22.174Z,23.42
2019-05-22T07:02:22.216Z,23.90
2019-05-22T07:03:22.198Z,24.32
2019-05-22T07:04:22.190Z,24.64
2019-05-22T07:05:22.194Z,25.14
2019-05-22T07:06:22.150Z,25.38
2019-05-22T07:07:22.211Z,25.48
2019-05-22T07:08:22.181Z,25.34
2019-05-22T07:09:22.188Z,25.49
2019-05-22T07:10:22.157Z,25.44
2019-05-22T07:11:22.194Z,25.65
2019-05-22T07:12:22.188Z,25.53
2019-05-22T07:13:22.185Z,25.89
2019-05-22T07:14:22.209Z,25.92
2019-05-22T07:15:22.203Z,25.69
2019-05-22T07:16:22.237Z,25.92
2019-05-22T07:17:22.159Z,25.89
2019-05-22T07:18:22.182Z,24.70
2019-05-22T07:19:22.179Z,25.37
2019-05-22T07:20:22.206Z,25.35
2019-05-22T07:21:33.373Z,25.46
2019-05-22T07:22:22.207Z,25.92
2019-05-22T07:23:22.205Z,26.56
2019-05-22T07:24:22.193Z,26.65
2019-05-22T07:25:22.159Z,26.89
2019-05-22T07:26:22.235Z,26.34
2019-05-22T07:27:22.218Z,26.72
2019-05-22T07:28:22.251Z,26.11
2019-05-22T07:29:22.201Z,25.93
2019-05-22T07:30:22.175Z,26.14
2019-05-22T07:31:22.184Z,26.23
2019-05-22T07:32:22.232Z,26.23
2019-05-22T07:33:22.276Z,26.35
2019-05-22T07:34:22.215Z,25.65
2019-05-22T07:35:22.209Z,25.90
2019-05-22T07:36:22.197Z,26.52
2019-05-22T07:37:22.225Z,26.15
2019-05-22T07:38:22.221Z,26.37
2019-05-22T07:39:22.215Z,25.79
2019-05-22T07:40:22.206Z,25.81
2019-05-22T07:41:22.198Z,25.66
2019-05-22T07:42:22.192Z,25.48
2019-05-22T07:43:22.208Z,25.80
2019-05-22T07:44:22.248Z,25.33
2019-05-22T07:45:22.224Z,25.75
2019-05-22T07:46:22.242Z,25.38
2019-05-22T07:47:22.242Z,25.62
2019-05-22T07:48:22.194Z,24.83
2019-05-22T07:49:22.197Z,25.25
2019-05-22T07:50:22.220Z,25.17
2019-05-22T07:51:22.234Z,25.25
2019-05-22T07:52:22.226Z,25.18
2019-05-22T07:53:22.226Z,24.82
2019-05-22T07:54:22.195Z,24.25
2019-05-22T07:55:22.227Z,24.15
2019-05-22T07:56:22.235Z,24.28
2019-05-22T07:57:22.238Z,24.34
2019-05-22T07:58:22.198Z,24.21
2019-05-22T07:59:22.224Z,24.45
2019-05-22T08:00:22.235Z,25.00
2019-05-22T08:01:22.246Z,25.14
2019-05-22T08:02:22.286Z,25.00
2019-05-22T08:03:22.238Z,25.42
2019-05-22T08:04:22.232Z,25.57
2019-05-22T08:05:22.246Z,25.76
2019-05-22T08:06:22.246Z,26.02
2019-05-22T08:07:22.244Z,26.21
2019-05-22T08:08:22.259Z,26.17
2019-05-22T08:09:22.250Z,26.35
2019-05-22T08:10:22.211Z,26.18
2019-05-22T08:11:22.233Z,26.18
2019-05-22T08:12:22.233Z,25.50
2019-05-22T08:13:22.240Z,25.28
2019-05-22T08:14:22.264Z,26.05
2019-05-22T08:15:22.281Z,26.73
2019-05-22T08:16:22.238Z,26.23
2019-05-22T08:17:22.259Z,25.15
2019-05-22T08:18:22.239Z,24.66
2019-05-22T08:19:22.225Z,24.48
2019-05-22T08:20:22.237Z,24.11
2019-05-22T08:21:23.661Z,24.68
2019-05-22T08:22:22.263Z,25.44
2019-05-22T08:23:22.234Z,26.44
2019-05-22T08:24:22.232Z,27.01
2019-05-22T08:25:22.286Z,25.95
2019-05-22T08:26:22.300Z,25.71
2019-05-22T08:27:22.276Z,26.32
2019-05-22T08:28:22.249Z,25.62
2019-05-22T08:29:22.270Z,26.08
2019-05-22T08:30:22.264Z,25.35
2019-05-22T08:31:22.251Z,24.89
2019-05-22T08:32:22.281Z,24.47
2019-05-22T08:33:22.281Z,25.42
2019-05-22T08:34:22.251Z,24.66
2019-05-22T08:35:22.238Z,24.45
2019-05-22T08:36:22.255Z,24.79
2019-05-22T08:37:22.248Z,25.03
2019-05-22T08:38:22.315Z,25.11
2019-05-22T08:39:22.290Z,25.00
2019-05-22T08:40:22.243Z,25.20
2019-05-22T08:41:22.292Z,25.21
2019-05-22T08:42:22.256Z,24.38
2019-05-22T08:43:22.243Z,24.39
2019-05-22T08:44:22.268Z,24.41
2019-05-22T08:45:22.290Z,24.43
2019-05-22T08:46:22.290Z,24.37
2019-05-22T08:47:22.247Z,24.44
2019-05-22T08:48:22.274Z,24.63
2019-05-22T08:49:22.259Z,24.29
2019-05-22T08:50:22.323Z,24.24
2019-05-22T08:51:22.303Z,24.31
2019-05-22T08:52:23.411Z,24.36
2019-05-22T08:53:22.292Z,24.36
2019-05-22T08:54:22.285Z,24.26
2019-05-22T08:55:22.264Z,24.45
2019-05-22T08:56:22.310Z,24.47
2019-05-22T08:57:22.296Z,24.54
2019-05-22T08:58:22.274Z,24.66
2019-05-22T08:59:22.286Z,24.67
2019-05-22T09:00:22.277Z,24.60
2019-05-22T09:01:22.299Z,24.80
2019-05-22T09:02:22.277Z,24.89
2019-05-22T09:03:22.312Z,24.96
2019-05-22T09:04:22.301Z,25.12
2019-05-22T09:05:22.326Z,25.15
2019-05-22T09:06:22.296Z,25.26
2019-05-22T09:07:22.268Z,25.37
2019-05-22T09:08:22.309Z,25.28
2019-05-22T09:09:22.314Z,24.72
2019-05-22T09:10:25.997Z,24.09
2019-05-22T09:11:22.275Z,24.48
2019-05-22T09:12:22.303Z,24.48
2019-05-22T09:13:22.331Z,24.74
2019-05-22T09:14:22.307Z,24.25
2019-05-22T09:15:22.318Z,24.37
2019-05-22T09:16:22.321Z,24.44
2019-05-22T09:17:22.317Z,23.79
2019-05-22T09:18:22.291Z,23.79
2019-05-22T09:19:22.319Z,23.59
2019-05-22T09:20:22.301Z,23.82
2019-05-22T09:21:22.297Z,23.93
2019-05-22T09:22:22.315Z,23.75
2019-05-22T09:23:22.321Z,23.78
2019-05-22T09:24:22.287Z,23.41
2019-05-22T09:25:22.305Z,24.05
2019-05-22T09:26:22.343Z,24.58
2019-05-22T09:27:22.346Z,24.68
2019-05-22T09:28:22.329Z,24.33
2019-05-22T09:29:22.296Z,24.30
2019-05-22T09:30:22.328Z,24.35
2019-05-22T09:31:22.314Z,24.53
2019-05-22T09:32:22.337Z,24.43
2019-05-22T09:33:22.338Z,24.63
2019-05-22T09:34:22.331Z,24.68
2019-05-22T09:35:22.393Z,24.89
2019-05-22T09:36:22.304Z,24.93
2019-05-22T09:37:22.364Z,24.58
2019-05-22T09:38:22.355Z,24.68
2019-05-22T09:39:22.337Z,24.76
2019-05-22T09:40:22.317Z,25.00
2019-05-22T09:41:22.303Z,25.01
2019-05-22T09:42:22.339Z,24.81
2019-05-22T09:43:22.332Z,24.11
2019-05-22T09:44:22.363Z,24.81
2019-05-22T09:45:22.352Z,24.20
2019-05-22T09:46:22.334Z,24.10
2019-05-22T09:47:22.313Z,24.39
2019-05-22T09:48:22.326Z,24.75
2019-05-22T09:49:24.052Z,24.73
2019-05-22T09:50:22.365Z,24.00
2019-05-22T09:51:22.341Z,23.79
2019-05-22T09:52:22.347Z,23.38
2019-05-22T09:53:22.319Z,24.10
2019-05-22T09:54:22.330Z,24.45
2019-05-22T09:55:22.343Z,24.79
2019-05-22T09:56:22.353Z,24.66
2019-05-22T09:57:22.354Z,25.38
2019-05-22T09:58:22.329Z,25.57
2019-05-22T09:59:22.333Z,26.01
2019-05-22T10:00:22.329Z,26.25
2019-05-22T10:01:22.348Z,25.54
2019-05-22T10:02:22.395Z,25.16
2019-05-22T10:03:22.399Z,25.11
2019-05-22T10:04:22.357Z,25.51
2019-05-22T10:05:22.372Z,25.65
2019-05-22T10:06:22.354Z,25.72
2019-05-22T10:07:22.452Z,25.17
2019-05-22T10:08:22.377Z,25.92
2019-05-22T10:09:22.362Z,25.99
2019-05-22T10:10:22.387Z,26.40
2019-05-22T10:11:22.358Z,26.50
2019-05-22T10:12:22.346Z,26.52
2019-05-22T10:13:22.475Z,26.03
2019-05-22T10:14:22.377Z,25.47
2019-05-22T10:15:22.503Z,25.33
2019-05-22T10:16:22.359Z,25.89
2019-05-22T10:17:22.343Z,25.45
2019-05-22T10:18:22.360Z,25.51
2019-05-22T10:19:22.353Z,25.81
2019-05-22T10:20:22.385Z,25.85
2019-05-22T10:21:22.377Z,25.99
2019-05-22T10:22:22.354Z,26.30
2019-05-22T10:23:22.352Z,25.91
2019-05-22T10:24:22.367Z,25.79
2019-05-22T10:25:22.379Z,25.75
2019-05-22T10:26:22.392Z,25.99
2019-05-22T10:27:22.394Z,25.19
2019-05-22T10:28:22.350Z,24.81
2019-05-22T10:29:22.401Z,24.89
2019-05-22T10:30:22.363Z,24.12
2019-05-22T10:31:22.349Z,25.03
2019-05-22T10:32:22.394Z,25.38
2019-05-22T10:33:22.407Z,24.28
2019-05-22T10:34:22.416Z,24.42
2019-05-22T10:35:22.388Z,25.18
2019-05-22T10:36:22.418Z,25.57
2019-05-22T10:37:22.369Z,25.62
2019-05-22T10:38:22.387Z,26.00
2019-05-22T10:39:24.693Z,25.55
2019-05-22T10:40:22.381Z,24.91
2019-05-22T10:41:22.426Z,24.78
2019-05-22T10:42:22.412Z,24.42
2019-05-22T10:43:22.392Z,24.12
2019-05-22T10:44:22.425Z,23.47
2019-05-22T10:45:22.394Z,24.13
2019-05-22T10:46:22.369Z,23.94
2019-05-22T10:47:22.398Z,24.13
2019-05-22T10:48:22.411Z,23.42
2019-05-22T10:49:22.420Z,23.22
2019-05-22T10:50:22.450Z,23.20
2019-05-22T10:51:22.437Z,22.76
2019-05-22T10:52:22.392Z,22.66
2019-05-22T10:53:32.997Z,23.33
2019-05-22T10:54:22.386Z,23.26
2019-05-22T10:55:22.403Z,23.42
2019-05-22T10:56:22.398Z,23.67
2019-05-22T10:57:22.445Z,23.64
2019-05-22T10:58:22.392Z,23.11
2019-05-22T10:59:22.400Z,23.22
2019-05-22T11:00:22.432Z,23.19
2019-05-22T11:01:22.397Z,23.18
2019-05-22T11:02:22.408Z,23.34
2019-05-22T11:03:22.420Z,23.45
2019-05-22T11:04:22.410Z,23.55
2019-05-22T11:05:22.435Z,23.25
2019-05-22T11:06:22.415Z,23.23
2019-05-22T11:07:22.409Z,23.02
2019-05-22T11:08:22.399Z,23.02
2019-05-22T11:09:22.456Z,22.84
2019-05-22T11:10:22.433Z,22.92
2019-05-22T11:11:22.486Z,23.23
2019-05-22T11:12:22.405Z,22.53
2019-05-22T11:13:22.435Z,22.51
2019-05-22T11:14:22.435Z,22.74
2019-05-22T11:15:22.492Z,22.90
2019-05-22T11:16:22.433Z,22.92
2019-05-22T11:17:22.442Z,23.39
2019-05-22T11:18:22.417Z,23.50
2019-05-22T11:19:22.419Z,23.53
2019-05-22T11:20:22.451Z,23.38
2019-05-22T11:21:22.455Z,23.58
2019-05-22T11:22:22.431Z,23.53
2019-05-22T11:23:22.420Z,23.86
2019-05-22T11:24:22.424Z,24.05
2019-05-22T11:25:22.452Z,23.88
2019-05-22T11:26:22.441Z,23.94
2019-05-22T11:27:22.444Z,23.74
2019-05-22T11:28:22.429Z,23.60
2019-05-22T11:29:22.493Z,23.25
2019-05-22T11:30:22.426Z,23.13
2019-05-22T11:31:22.439Z,23.14
2019-05-22T11:32:22.504Z,22.61
2019-05-22T11:33:22.521Z,22.81
2019-05-22T11:34:22.434Z,22.67
2019-05-22T11:35:22.456Z,22.65
2019-05-22T11:36:22.455Z,23.04
2019-05-22T11:37:22.436Z,23.34
2019-05-22T11:38:22.507Z,23.47
2019-05-22T11:39:38.150Z,23.55
2019-05-22T11:40:22.471Z,23.77
2019-05-22T11:41:22.473Z,23.89
2019-05-22T11:42:22.445Z,23.66
2019-05-22T11:43:22.455Z,23.95
2019-05-22T11:44:22.469Z,24.22
2019-05-22T11:45:22.467Z,24.04
2019-05-22T11:46:22.490Z,23.93
2019-05-22T11:47:22.482Z,24.17
2019-05-22T11:48:22.475Z,24.05
2019-05-22T11:49:22.438Z,23.84
2019-05-22T11:50:22.455Z,23.67
2019-05-22T11:51:22.502Z,23.60
2019-05-22T11:52:22.495Z,23.59
2019-05-22T11:53:22.446Z,23.75
2019-05-22T11:54:22.469Z,24.00
2019-05-22T11:55:22.490Z,24.16
2019-05-22T11:56:22.522Z,24.21
2019-05-22T11:57:22.469Z,23.49
2019-05-22T11:58:22.513Z,23.43
2019-05-22T11:59:22.500Z,23.66
2019-05-22T12:00:22.454Z,23.37
2019-05-22T12:01:22.479Z,23.39
2019-05-22T12:02:22.514Z,23.89
2019-05-22T12:03:22.469Z,23.85
2019-05-22T12:04:22.458Z,23.75
2019-05-22T12:05:22.488Z,24.04
2019-05-22T12:06:22.481Z,24.06
2019-05-22T12:07:22.478Z,24.33
2019-05-22T12:08:22.494Z,24.57
2019-05-22T12:09:22.502Z,24.39
2019-05-22T12:10:22.467Z,23.81
2019-05-22T12:11:22.439Z,24.07
2019-05-22T12:12:22.457Z,24.26
2019-05-22T12:13:22.471Z,24.05
2019-05-22T12:14:22.509Z,23.83
2019-05-22T12:15:22.486Z,24.18
2019-05-22T12:16:22.504Z,24.62
2019-05-22T12:17:37.513Z,24.91
2019-05-22T12:18:22.499Z,25.13
2019-05-22T12:19:22.478Z,25.13
2019-05-22T12:20:22.510Z,25.13
2019-05-22T12:21:22.487Z,25.62
2019-05-22T12:22:22.473Z,25.54
2019-05-22T12:23:22.516Z,25.65
2019-05-22T12:24:27.439Z,25.72
2019-05-22T12:25:22.465Z,25.59
2019-05-22T12:26:22.526Z,25.20
2019-05-22T12:27:22.496Z,25.34
2019-05-22T12:28:22.478Z,25.17
2019-05-22T12:29:22.511Z,24.72
2019-05-22T12:30:22.495Z,24.46
2019-05-22T12:31:22.493Z,24.75
2019-05-22T12:32:22.481Z,25.11
2019-05-22T12:33:22.503Z,25.17
2019-05-22T12:34:22.514Z,25.24
2019-05-22T12:35:22.493Z,25.25
2019-05-22T12:36:22.487Z,25.22
2019-05-22T12:37:22.483Z,25.35
2019-05-22T12:38:22.519Z,24.87
2019-05-22T12:39:22.532Z,24.77
2019-05-22T12:40:22.503Z,25.01
2019-05-22T12:41:22.513Z,24.88
2019-05-22T12:42:22.517Z,25.05
2019-05-22T12:43:22.520Z,24.89
2019-05-22T12:44:22.553Z,24.64
2019-05-22T12:45:22.512Z,24.82
2019-05-22T12:46:22.487Z,24.16
2019-05-22T12:47:22.485Z,24.41
2019-05-22T12:48:22.507Z,24.17
2019-05-22T12:49:22.549Z,24.34
2019-05-22T12:50:22.539Z,24.10
2019-05-22T12:51:22.520Z,24.35
2019-05-22T12:52:22.499Z,24.38